Time;durP1;ratioP1;P1;durP2;ratioP2;P2;SDS_P1;SDS_P2;PMS_P1;PMS_P2;Temp;Humidity;BMP_temperature;BMP_pressure;BME280_temperature;BME280_humidity;BME280_pressure;Samples;Min_cycle;Max_cycle;Signal;HPM_P1;HPM_P2
2023/12/03 00:01:35;;;;;;;68.20;30.70;;;;;;;-1.72;93.75;99535.80;129989;1264;97974;-79
2023/12/03 00:04:42;;;;;;;64.70;28.90;;;;;;;-1.69;93.60;99544.52;129932;1264;97990;-80
2023/12/03 00:07:49;;;;;;;72.80;28.00;;;;;;;-1.73;93.67;99541.05;130006;1268;98777;-80
2023/12/03 00:10:55;;;;;;;66.60;24.90;;;;;;;-1.76;93.78;99540.04;130129;1264;97977;-81
2023/12/03 00:14:00;;;;;;;60.20;26.40;;;;;;;-1.81;93.95;99549.18;130329;1267;99154;-78
2023/12/03 00:17:06;;;;;;;56.50;23.30;;;;;;;-1.83;94.29;99557.68;130145;1269;97973;-76
2023/12/03 00:20:13;;;;;;;48.40;21.20;;;;;;;-1.80;94.02;99563.79;130254;1268;97997;-77
2023/12/03 00:23:18;;;;;;;49.10;21.30;;;;;;;-1.74;93.98;99566.08;129974;1265;97978;-77
2023/12/03 00:26:24;;;;;;;51.70;22.20;;;;;;;-1.71;93.50;99563.77;130240;1265;98907;-77
2023/12/03 00:29:30;;;;;;;48.00;21.80;;;;;;;-1.71;93.85;99564.33;130173;1264;99157;-76
2023/12/03 00:32:36;;;;;;;49.10;20.90;;;;;;;-1.72;93.80;99565.23;130040;1267;99135;-76
2023/12/03 00:35:41;;;;;;;55.90;23.80;;;;;;;-1.71;93.70;99566.95;129981;1268;99133;-77
2023/12/03 00:38:47;;;;;;;51.00;21.70;;;;;;;-1.72;93.81;99571.83;129948;1268;97962;-76
2023/12/03 00:41:52;;;;;;;50.40;21.40;;;;;;;-1.70;93.91;99574.34;129930;1268;97994;-76
2023/12/03 00:44:58;;;;;;;45.50;19.40;;;;;;;-1.64;93.78;99578.55;129919;1265;97975;-76
2023/12/03 00:48:03;;;;;;;46.80;19.80;;;;;;;-1.59;93.77;99575.95;129842;1270;99142;-77
2023/12/03 00:51:09;;;;;;;47.40;21.30;;;;;;;-1.53;93.72;99579.44;129938;1263;98075;-77
2023/12/03 00:54:14;;;;;;;46.00;19.70;;;;;;;-1.57;93.80;99584.40;129877;1270;98064;-77
2023/12/03 00:57:20;;;;;;;46.40;21.20;;;;;;;-1.56;93.71;99588.19;129994;1264;98030;-77
2023/12/03 01:00:25;;;;;;;48.80;21.00;;;;;;;-1.58;93.55;99591.23;129908;1266;97997;-77
2023/12/03 01:03:31;;;;;;;57.40;23.10;;;;;;;-1.61;93.72;99593.71;129924;1265;98671;-76
2023/12/03 01:06:37;;;;;;;48.70;21.30;;;;;;;-1.65;93.90;99592.21;129908;1264;99289;-76
2023/12/03 01:09:43;;;;;;;52.10;20.30;;;;;;;-1.66;93.82;99595.39;129995;1263;97993;-77
2023/12/03 01:12:49;;;;;;;47.20;20.30;;;;;;;-1.61;94.18;99600.66;129940;1268;97981;-76
2023/12/03 01:15:54;;;;;;;50.20;20.90;;;;;;;-1.58;93.87;99604.86;129878;1264;98028;-76
2023/12/03 01:18:59;;;;;;;46.30;19.90;;;;;;;-1.56;93.82;99607.54;129922;1265;98077;-77
2023/12/03 01:22:05;;;;;;;48.00;20.80;;;;;;;-1.54;93.85;99611.64;129937;1271;99157;-76
2023/12/03 01:25:11;;;;;;;44.10;19.80;;;;;;;-1.55;93.49;99615.34;129935;1264;98058;-77
2023/12/03 01:28:20;;;;;;;46.80;19.70;;;;;;;-1.56;93.77;99617.48;130008;1264;97993;-77
2023/12/03 01:31:26;;;;;;;46.90;21.20;;;;;;;-1.59;93.72;99615.91;129984;1268;98099;-77
2023/12/03 01:34:31;;;;;;;43.20;19.20;;;;;;;-1.63;93.65;99618.78;129989;1263;97999;-76
2023/12/03 01:37:37;;;;;;;49.50;21.00;;;;;;;-1.63;93.88;99621.55;129870;1268;98742;-76
2023/12/03 01:40:51;;;;;;;41.60;18.80;;;;;;;-1.62;94.18;99621.16;129906;1268;97981;-76
2023/12/03 01:43:56;;;;;;;42.10;19.10;;;;;;;-1.59;93.94;99620.24;130061;1267;98310;-77
2023/12/03 01:47:02;;;;;;;39.40;18.20;;;;;;;-1.55;93.93;99624.59;129989;1268;98093;-77
2023/12/03 01:50:11;;;;;;;38.90;18.30;;;;;;;-1.51;93.68;99633.23;129947;1268;98060;-77
2023/12/03 01:53:19;;;;;;;37.60;17.30;;;;;;;-1.52;93.89;99636.61;130101;1265;97973;-77
2023/12/03 01:56:24;;;;;;;33.10;16.40;;;;;;;-1.57;93.86;99641.61;130052;1268;97976;-77
2023/12/03 01:59:30;;;;;;;34.10;16.20;;;;;;;-1.62;93.94;99646.77;130095;1267;97982;-77
2023/12/03 02:02:36;;;;;;;30.60;14.50;;;;;;;-1.65;93.98;99648.00;129947;1268;97984;-76
2023/12/03 02:05:42;;;;;;;25.60;13.20;;;;;;;-1.64;94.14;99648.29;130101;1265;99154;-76
2023/12/03 02:08:47;;;;;;;23.60;11.10;;;;;;;-1.61;94.41;99653.01;129891;1268;98659;-77
2023/12/03 02:11:53;;;;;;;30.10;12.70;;;;;;;-1.56;94.38;99645.91;129910;1265;97976;-76
2023/12/03 02:14:59;;;;;;;31.40;14.60;;;;;;;-1.53;94.20;99649.23;129911;1267;97962;-78
2023/12/03 02:18:04;;;;;;;31.80;15.70;;;;;;;-1.49;94.12;99654.89;129919;1268;98089;-75
2023/12/03 02:21:11;;;;;;;40.70;17.40;;;;;;;-1.51;94.17;99660.09;129951;1268;97971;-75
2023/12/03 02:24:16;;;;;;;37.30;17.20;;;;;;;-1.56;93.93;99659.17;130060;1280;99043;-75
2023/12/03 02:27:22;;;;;;;45.70;18.70;;;;;;;-1.57;93.98;99669.33;129911;1269;98018;-76
2023/12/03 02:30:27;;;;;;;46.10;18.60;;;;;;;-1.55;93.84;99669.92;129830;1269;99186;-76
2023/12/03 02:33:33;;;;;;;45.00;18.60;;;;;;;-1.52;93.85;99672.34;129928;1270;97988;-76
2023/12/03 02:36:39;;;;;;;44.20;18.70;;;;;;;-1.47;93.79;99671.88;130113;1268;98666;-76
2023/12/03 02:39:44;;;;;;;43.60;19.10;;;;;;;-1.41;93.82;99681.30;129856;1265;97962;-76
2023/12/03 02:42:50;;;;;;;44.60;19.50;;;;;;;-1.30;93.96;99686.05;129914;1271;98781;-76
2023/12/03 02:45:55;;;;;;;44.50;19.90;;;;;;;-1.21;93.33;99688.64;129842;1263;99043;-75
2023/12/03 02:49:00;;;;;;;45.20;20.20;;;;;;;-1.20;93.07;99693.48;129932;1264;98021;-76
2023/12/03 02:52:06;;;;;;;44.80;20.10;;;;;;;-1.18;93.12;99697.38;129855;1268;98034;-77
2023/12/03 02:55:12;;;;;;;47.40;20.30;;;;;;;-1.16;93.03;99700.23;129875;1264;98777;-77
2023/12/03 02:58:17;;;;;;;41.00;19.70;;;;;;;-1.21;92.86;99698.80;129879;1268;98033;-76
2023/12/03 03:01:23;;;;;;;52.70;21.50;;;;;;;-1.27;92.95;99698.75;129881;1268;98974;-76
2023/12/03 03:04:28;;;;;;;46.90;20.40;;;;;;;-1.33;92.96;99697.41;129891;1268;98193;-76
2023/12/03 03:07:34;;;;;;;53.00;19.90;;;;;;;-1.36;93.16;99699.34;129871;1266;99030;-76
2023/12/03 03:10:39;;;;;;;44.40;18.60;;;;;;;-1.35;93.23;99702.61;129869;1265;98062;-76
2023/12/03 03:13:45;;;;;;;51.10;21.20;;;;;;;-1.29;93.18;99709.95;129877;1280;97981;-76
2023/12/03 03:16:50;;;;;;;49.40;20.90;;;;;;;-1.28;93.14;99715.26;129878;1270;97989;-76
2023/12/03 03:19:56;;;;;;;48.10;21.20;;;;;;;-1.27;92.94;99713.80;129832;1269;97977;-76
2023/12/03 03:23:02;;;;;;;48.70;21.10;;;;;;;-1.27;92.89;99718.16;129891;1265;99065;-77
2023/12/03 03:26:08;;;;;;;45.00;20.00;;;;;;;-1.30;92.83;99719.36;129800;1265;97997;-77
2023/12/03 03:29:13;;;;;;;50.30;20.60;;;;;;;-1.30;92.79;99721.66;129821;1264;97990;-77
2023/12/03 03:32:19;;;;;;;53.60;20.80;;;;;;;-1.32;92.71;99720.73;129883;1268;99250;-76
2023/12/03 03:35:24;;;;;;;51.70;20.10;;;;;;;-1.37;92.63;99718.60;129838;1268;99170;-77
2023/12/03 03:38:29;;;;;;;49.30;19.10;;;;;;;-1.44;92.79;99716.02;129834;1265;97982;-76
2023/12/03 03:41:35;;;;;;;43.80;18.30;;;;;;;-1.42;92.96;99711.36;129943;1264;98023;-77
2023/12/03 03:44:41;;;;;;;42.90;19.10;;;;;;;-1.37;92.97;99722.05;129870;1268;98978;-77
2023/12/03 03:47:46;;;;;;;40.20;18.60;;;;;;;-1.29;93.07;99727.17;129825;1275;97983;-76
2023/12/03 03:50:52;;;;;;;42.50;18.20;;;;;;;-1.20;92.73;99729.45;129877;1265;97977;-76
2023/12/03 03:53:57;;;;;;;46.20;19.60;;;;;;;-1.17;92.56;99731.00;129832;1265;97992;-77
2023/12/03 03:57:03;;;;;;;47.30;19.20;;;;;;;-1.20;92.18;99732.73;129861;1266;97981;-76
2023/12/03 04:00:11;;;;;;;113.60;42.50;;;;;;;-1.26;92.14;99734.86;129887;1267;99139;-77
2023/12/03 04:03:19;;;;;;;231.90;67.30;;;;;;;-1.28;92.25;99733.92;129876;1277;99062;-77
2023/12/03 04:06:25;;;;;;;127.90;42.60;;;;;;;-1.34;92.24;99726.42;129881;1268;97970;-77
2023/12/03 04:09:31;;;;;;;83.00;30.80;;;;;;;-1.41;92.30;99729.29;129869;1266;98595;-77
2023/12/03 04:12:37;;;;;;;219.90;87.20;;;;;;;-1.44;92.43;99735.71;129875;1268;98047;-76
2023/12/03 04:15:43;;;;;;;62.50;24.10;;;;;;;-1.38;92.57;99738.33;129799;1265;97974;-78
2023/12/03 04:18:48;;;;;;;106.60;52.70;;;;;;;-1.32;92.47;99741.68;129859;1266;98938;-77
2023/12/03 04:21:54;;;;;;;93.50;48.70;;;;;;;-1.25;92.14;99749.09;130030;1266;98063;-77
2023/12/03 04:24:59;;;;;;;85.50;42.70;;;;;;;-1.19;92.15;99754.17;130055;1263;98093;-77
2023/12/03 04:28:06;;;;;;;62.00;29.70;;;;;;;-1.15;92.05;99755.15;130011;1268;99202;-77
2023/12/03 04:31:23;;;;;;;57.50;27.30;;;;;;;-1.15;91.77;99762.69;130013;1268;98663;-75
2023/12/03 04:34:35;;;;;;;46.30;20.10;;;;;;;-1.21;91.52;99764.05;130141;1264;98054;-76
2023/12/03 04:37:40;;;;;;;116.10;44.10;;;;;;;-1.28;91.77;99770.55;130172;1265;97970;-77
2023/12/03 04:40:46;;;;;;;487.30;189.00;;;;;;;-1.31;91.85;99772.48;130205;1266;98066;-77
2023/12/03 04:43:54;;;;;;;205.70;58.70;;;;;;;-1.33;91.80;99782.91;130030;1268;98881;-79
2023/12/03 04:47:00;;;;;;;1188.80;383.30;;;;;;;-1.37;91.91;99787.17;130036;1268;98508;-76
2023/12/03 04:50:06;;;;;;;1396.30;473.40;;;;;;;-1.31;92.13;99791.02;130017;1268;97970;-76
2023/12/03 04:53:13;;;;;;;1140.70;407.90;;;;;;;-1.22;92.05;99795.84;130216;1265;98469;-76
2023/12/03 04:56:18;;;;;;;1120.40;434.90;;;;;;;-1.11;91.92;99801.38;129889;1264;97993;-77
2023/12/03 04:59:24;;;;;;;731.10;267.00;;;;;;;-1.04;91.72;99805.83;130072;1268;98047;-77
2023/12/03 05:02:30;;;;;;;563.10;198.10;;;;;;;-0.96;91.84;99811.27;130048;1267;98648;-77
2023/12/03 05:05:36;;;;;;;322.90;111.60;;;;;;;-0.92;91.58;99812.61;130155;1268;98002;-76
2023/12/03 05:08:41;;;;;;;247.90;82.20;;;;;;;-0.93;91.74;99823.17;130075;1268;98059;-76
2023/12/03 05:11:48;;;;;;;358.00;147.90;;;;;;;-0.90;91.88;99825.10;130029;1263;97964;-77
2023/12/03 05:14:54;;;;;;;158.20;57.90;;;;;;;-0.87;91.97;99824.38;130089;1266;97965;-76
2023/12/03 05:17:59;;;;;;;56.50;24.20;;;;;;;-0.92;91.98;99825.02;129966;1271;97974;-77
2023/12/03 05:21:07;;;;;;;85.40;40.70;;;;;;;-0.96;92.02;99825.93;129976;1265;98675;-77
2023/12/03 05:24:12;;;;;;;54.60;24.70;;;;;;;-0.92;92.34;99832.54;129903;1267;98065;-77
2023/12/03 05:27:18;;;;;;;51.10;23.10;;;;;;;-0.84;92.66;99836.79;130032;1270;99024;-77
2023/12/03 05:30:25;;;;;;;48.90;21.90;;;;;;;-0.76;92.58;99835.63;130000;1265;97970;-76
2023/12/03 05:33:31;;;;;;;44.70;21.00;;;;;;;-0.73;92.45;99847.48;130108;1262;98994;-75
2023/12/03 05:36:36;;;;;;;434.60;146.20;;;;;;;-0.71;92.33;99846.65;130118;1275;98642;-76
2023/12/03 05:39:42;;;;;;;550.40;179.30;;;;;;;-0.67;92.51;99852.20;130038;1268;98118;-76
2023/12/03 05:42:48;;;;;;;272.10;78.00;;;;;;;-0.64;92.51;99858.63;129974;1265;98783;-76
2023/12/03 05:45:53;;;;;;;439.80;124.10;;;;;;;-0.64;92.50;99859.30;129991;1265;98610;-76
2023/12/03 05:48:59;;;;;;;318.30;83.30;;;;;;;-0.66;92.34;99863.98;130011;1268;99166;-78
2023/12/03 05:52:07;;;;;;;88.30;29.40;;;;;;;-0.66;92.59;99864.52;129977;1268;98798;-76
2023/12/03 05:55:13;;;;;;;317.30;80.20;;;;;;;-0.67;92.41;99863.89;130049;1268;97993;-76
2023/12/03 05:58:20;;;;;;;295.50;74.30;;;;;;;-0.68;92.52;99869.70;130021;1268;98156;-77
2023/12/03 06:01:26;;;;;;;643.10;169.10;;;;;;;-0.67;92.60;99872.09;130030;1265;98083;-75
2023/12/03 06:04:31;;;;;;;168.80;45.00;;;;;;;-0.61;92.59;99870.34;129989;1268;98073;-76
2023/12/03 06:07:37;;;;;;;80.90;37.90;;;;;;;-0.62;92.24;99871.78;130002;1279;98780;-76
2023/12/03 06:10:43;;;;;;;362.50;149.30;;;;;;;-0.63;92.32;99879.73;130012;1268;98659;-75
2023/12/03 06:13:48;;;;;;;342.90;120.70;;;;;;;-0.67;91.96;99884.82;129884;1266;98630;-76
2023/12/03 06:16:54;;;;;;;90.60;33.40;;;;;;;-0.73;92.24;99888.33;129728;1265;98065;-77
2023/12/03 06:20:00;;;;;;;178.80;63.90;;;;;;;-0.82;92.15;99891.67;129862;1264;99071;-77
2023/12/03 06:23:06;;;;;;;172.20;65.10;;;;;;;-0.87;92.16;99891.77;129926;1268;99237;-76
2023/12/03 06:26:16;;;;;;;339.70;127.60;;;;;;;-0.84;92.40;99897.33;129883;1268;99049;-77
2023/12/03 06:29:22;;;;;;;218.40;101.80;;;;;;;-0.74;92.54;99900.97;129903;1268;98011;-75
2023/12/03 06:32:28;;;;;;;72.90;34.70;;;;;;;-0.68;92.20;99905.69;129809;1269;98885;-77
2023/12/03 06:35:33;;;;;;;94.60;48.10;;;;;;;-0.66;92.23;99907.67;129930;1266;98375;-75
2023/12/03 06:38:39;;;;;;;47.90;23.40;;;;;;;-0.62;92.01;99911.81;129923;1265;97973;-77
2023/12/03 06:41:44;;;;;;;63.90;32.90;;;;;;;-0.65;91.83;99914.78;129825;1268;98155;-76
2023/12/03 06:44:50;;;;;;;48.90;25.20;;;;;;;-0.67;92.03;99919.44;129769;1265;99075;-77
2023/12/03 06:47:55;;;;;;;38.40;20.20;;;;;;;-0.66;92.07;99919.53;129791;1268;98123;-77
2023/12/03 06:51:01;;;;;;;40.90;19.30;;;;;;;-0.66;92.06;99930.54;129805;1268;98634;-77
2023/12/03 06:54:07;;;;;;;39.60;18.10;;;;;;;-0.73;92.41;99931.30;129802;1268;99097;-77
2023/12/03 06:57:13;;;;;;;38.80;18.30;;;;;;;-0.75;92.64;99926.56;129877;1265;97970;-77
2023/12/03 07:00:20;;;;;;;38.90;18.70;;;;;;;-0.70;92.61;99930.79;129837;1264;97965;-77
2023/12/03 07:03:25;;;;;;;38.90;19.00;;;;;;;-0.69;92.29;99931.59;129862;1268;98675;-76
2023/12/03 07:06:31;;;;;;;34.80;17.80;;;;;;;-0.70;92.15;99937.79;129856;1268;99215;-77
2023/12/03 07:09:36;;;;;;;46.70;24.80;;;;;;;-0.71;92.09;99943.08;129760;1279;99142;-76
2023/12/03 07:12:42;;;;;;;40.20;19.50;;;;;;;-0.71;92.22;99946.91;129807;1266;97960;-77
2023/12/03 07:15:48;;;;;;;41.80;18.60;;;;;;;-0.68;92.12;99951.83;129789;1269;97985;-75
2023/12/03 07:18:54;;;;;;;39.00;17.50;;;;;;;-0.71;92.18;99958.05;129784;1268;99193;-76
2023/12/03 07:22:00;;;;;;;35.90;16.10;;;;;;;-0.68;92.05;99961.10;129765;1265;98097;-77
2023/12/03 07:25:07;;;;;;;35.60;17.10;;;;;;;-0.57;92.32;99965.48;129825;1268;97992;-76
2023/12/03 07:28:13;;;;;;;44.40;21.40;;;;;;;-0.55;91.87;99971.30;130014;1266;101460;-76
2023/12/03 07:31:18;;;;;;;85.80;29.80;;;;;;;-0.54;91.83;99972.98;129824;1266;98074;-76
2023/12/03 07:34:25;;;;;;;169.90;49.10;;;;;;;-0.57;91.70;99972.51;129797;1268;97974;-76
2023/12/03 07:37:31;;;;;;;173.00;51.30;;;;;;;-0.65;91.49;99981.13;129859;1265;97971;-76
2023/12/03 07:40:37;;;;;;;635.30;177.00;;;;;;;-0.66;91.87;99985.44;129747;1268;97982;-77
2023/12/03 07:43:42;;;;;;;175.30;45.20;;;;;;;-0.63;91.96;99988.36;129884;1268;100454;-77
2023/12/03 07:46:48;;;;;;;877.00;241.80;;;;;;;-0.58;92.04;99992.45;129710;1268;99065;-76
2023/12/03 07:49:54;;;;;;;360.90;86.80;;;;;;;-0.44;92.08;99993.54;129686;1268;99136;-78
2023/12/03 07:53:00;;;;;;;231.10;63.30;;;;;;;-0.29;91.79;99997.58;129749;1265;98214;-77
2023/12/03 07:56:07;;;;;;;191.20;56.00;;;;;;;-0.19;91.65;99995.05;129781;1265;98096;-77
2023/12/03 07:59:12;;;;;;;298.20;75.00;;;;;;;-0.12;91.27;99998.99;129807;1281;98809;-77
2023/12/03 08:02:18;;;;;;;287.70;76.70;;;;;;;-0.14;90.92;99999.52;129814;1264;98704;-77
2023/12/03 08:05:23;;;;;;;303.20;80.80;;;;;;;-0.21;91.08;100001.98;129732;1268;98080;-78
2023/12/03 08:08:29;;;;;;;271.30;71.30;;;;;;;-0.17;91.33;100004.91;129763;1266;97990;-77
2023/12/03 08:11:35;;;;;;;219.50;61.40;;;;;;;-0.17;91.14;100006.66;129826;1268;99151;-76
2023/12/03 08:14:41;;;;;;;187.10;47.80;;;;;;;-0.19;91.17;100008.38;129819;1269;99180;-76
2023/12/03 08:17:46;;;;;;;72.50;26.10;;;;;;;-0.18;91.39;100013.17;129874;1265;99166;-76
2023/12/03 08:20:52;;;;;;;379.60;69.60;;;;;;;-0.15;91.13;100014.41;129799;1268;98093;-77
2023/12/03 08:23:58;;;;;;;54.80;21.30;;;;;;;-0.14;90.77;100018.70;129874;1264;98585;-77
2023/12/03 08:27:10;;;;;;;116.10;39.90;;;;;;;-0.18;90.72;100022.66;129788;1268;98790;-77
2023/12/03 08:30:17;;;;;;;315.80;79.40;;;;;;;-0.17;90.83;100029.91;129909;1268;100524;-76
2023/12/03 08:33:23;;;;;;;76.80;27.60;;;;;;;-0.09;90.88;100029.64;129874;1267;99039;-76
2023/12/03 08:36:31;;;;;;;56.10;21.60;;;;;;;-0.07;90.90;100032.64;129757;1281;99236;-76
2023/12/03 08:39:36;;;;;;;54.70;22.60;;;;;;;-0.10;90.47;100041.58;130063;1268;98017;-77
2023/12/03 08:42:44;;;;;;;110.80;34.20;;;;;;;-0.15;90.78;100054.09;129839;1265;98131;-77
2023/12/03 08:45:49;;;;;;;82.40;28.30;;;;;;;-0.15;90.75;100060.25;129809;1271;98323;-77
2023/12/03 08:48:55;;;;;;;425.30;104.80;;;;;;;-0.15;90.89;100066.69;129835;1265;98780;-76
2023/12/03 08:52:00;;;;;;;474.00;153.50;;;;;;;-0.07;91.05;100068.34;129779;1268;98066;-76
2023/12/03 08:55:08;;;;;;;43.30;20.90;;;;;;;0.07;90.83;100069.75;129870;1269;99139;-76
2023/12/03 08:58:13;;;;;;;56.40;27.30;;;;;;;0.12;90.33;100069.64;129791;1268;99154;-77
2023/12/03 09:01:20;;;;;;;112.50;48.00;;;;;;;0.17;90.62;100078.10;129844;1268;97960;-77
2023/12/03 09:04:26;;;;;;;85.50;36.60;;;;;;;0.28;90.69;100082.31;129764;1270;99069;-78
2023/12/03 09:07:31;;;;;;;43.20;20.90;;;;;;;0.35;90.09;100084.56;129899;1269;98060;-77
2023/12/03 09:10:37;;;;;;;109.00;53.10;;;;;;;0.35;90.09;100083.83;129777;1265;97991;-81
2023/12/03 09:13:53;;;;;;;69.40;35.10;;;;;;;0.46;90.68;100085.50;130283;1265;98620;-81
2023/12/03 09:17:05;;;;;;;43.90;20.60;;;;;;;0.55;90.22;100086.99;130227;1269;98020;-80
2023/12/03 09:20:14;;;;;;;49.60;23.90;;;;;;;0.53;90.00;100089.63;130023;1267;98977;-80
2023/12/03 09:23:29;;;;;;;41.20;20.30;;;;;;;0.60;90.43;100091.43;130116;1268;98039;-81
2023/12/03 09:26:37;;;;;;;32.70;16.60;;;;;;;0.72;90.66;100091.95;130024;1264;98675;-80
2023/12/03 09:29:44;;;;;;;52.50;24.60;;;;;;;0.84;90.20;100096.14;129834;1268;98460;-81
2023/12/03 09:32:50;;;;;;;70.60;35.40;;;;;;;0.96;90.08;100094.34;129838;1271;97982;-79
2023/12/03 09:35:56;;;;;;;52.00;28.20;;;;;;;1.04;90.15;100093.28;129794;1269;97987;-80
2023/12/03 09:39:04;;;;;;;41.10;22.80;;;;;;;1.15;90.04;100093.67;129807;1267;98461;-79
2023/12/03 09:42:27;;;;;;;41.50;20.90;;;;;;;1.21;89.74;100092.58;129742;1265;99058;-79
2023/12/03 09:45:39;;;;;;;356.40;145.60;;;;;;;1.14;89.07;100094.45;129856;1270;99157;-80
2023/12/03 09:48:52;;;;;;;518.90;201.50;;;;;;;1.10;89.31;100099.37;129845;1279;98016;-79
2023/12/03 09:52:02;;;;;;;738.80;287.20;;;;;;;1.09;89.47;100100.52;129893;1271;97973;-78
2023/12/03 09:55:14;;;;;;;753.50;269.10;;;;;;;1.09;89.81;100103.49;129734;1270;99151;-78
2023/12/03 09:58:26;;;;;;;1043.50;386.20;;;;;;;1.14;89.57;100107.04;129893;1268;99221;-79
2023/12/03 10:01:37;;;;;;;1003.00;350.70;;;;;;;1.12;89.35;100100.99;129845;1266;98144;-80
2023/12/03 10:04:45;;;;;;;102.80;34.40;;;;;;;1.15;89.24;100100.66;130104;1268;98075;-80
2023/12/03 10:07:52;;;;;;;988.90;363.00;;;;;;;1.04;89.05;100101.71;129792;1270;98025;-80
2023/12/03 10:11:05;;;;;;;584.10;198.50;;;;;;;1.09;89.69;100102.27;129777;1265;98972;-78
2023/12/03 10:14:17;;;;;;;476.70;154.40;;;;;;;1.15;89.36;100107.80;129909;1265;98068;-79
2023/12/03 10:17:27;;;;;;;578.60;213.10;;;;;;;1.12;89.02;100107.85;129937;1265;98373;-80
2023/12/03 10:20:36;;;;;;;403.40;120.00;;;;;;;1.08;89.00;100114.92;129879;1266;98559;-81
2023/12/03 10:24:00;;;;;;;148.00;47.90;;;;;;;1.05;88.95;100116.21;129784;1264;98038;-78
2023/12/03 10:27:14;;;;;;;127.50;44.40;;;;;;;0.96;89.09;100115.30;129720;1270;97986;-77
2023/12/03 10:30:21;;;;;;;516.90;167.20;;;;;;;0.93;89.29;100118.50;130342;1270;98056;-77
2023/12/03 10:33:30;;;;;;;266.10;87.70;;;;;;;0.96;89.62;100121.84;129778;1273;97905;-81
2023/12/03 10:36:42;;;;;;;106.60;42.50;;;;;;;1.03;89.20;100126.50;129925;1268;99006;-79
2023/12/03 10:39:50;;;;;;;735.90;369.10;;;;;;;1.02;89.13;100123.55;130478;1269;97993;-78
2023/12/03 10:43:01;;;;;;;372.60;149.90;;;;;;;1.02;89.57;100127.20;130101;1268;99170;-78
2023/12/03 10:46:16;;;;;;;885.60;362.80;;;;;;;1.09;89.32;100128.16;130071;1266;97951;-78
2023/12/03 10:49:30;;;;;;;262.40;95.50;;;;;;;1.13;89.52;100129.00;129900;1268;98057;-81
2023/12/03 10:52:47;;;;;;;56.30;30.40;;;;;;;1.14;89.08;100138.19;129909;1271;98058;-78
2023/12/03 10:55:57;;;;;;;86.00;42.80;;;;;;;1.03;89.31;100140.67;129881;1268;99162;-78
2023/12/03 10:59:09;;;;;;;44.80;26.00;;;;;;;0.99;89.66;100146.16;129928;1270;99136;-79
2023/12/03 11:02:19;;;;;;;;;;;;;;;1.01;89.57;100151.10;129933;1264;99180;-80
2023/12/03 11:05:33;;;;;;;42.70;26.10;;;;;;;0.99;89.65;100157.19;129726;1266;98105;-78
2023/12/03 11:08:44;;;;;;;51.90;26.50;;;;;;;0.93;89.86;100161.59;129990;1271;99180;-81
2023/12/03 11:12:01;;;;;;;64.40;38.20;;;;;;;0.88;90.10;100162.40;129970;1271;98022;-80
2023/12/03 11:15:16;;;;;;;42.90;23.70;;;;;;;0.89;90.39;100168.98;130633;1264;98180;-80
2023/12/03 11:18:27;;;;;;;49.60;27.80;;;;;;;0.85;90.47;100172.40;129875;1268;98031;-80
2023/12/03 11:21:54;;;;;;;89.40;43.60;;;;;;;0.75;90.71;100174.05;129856;1268;99180;-80
2023/12/03 11:25:10;;;;;;;51.50;28.60;;;;;;;0.76;90.80;100181.14;129815;1271;99167;-80
2023/12/03 11:28:19;;;;;;;130.00;70.00;;;;;;;0.69;90.84;100192.08;129877;1269;98682;-80
2023/12/03 11:31:28;;;;;;;57.50;31.70;;;;;;;0.62;91.21;100191.14;129802;1271;98995;-80
2023/12/03 11:34:37;;;;;;;53.20;30.10;;;;;;;0.53;91.51;100197.58;129925;1269;98088;-80
2023/12/03 11:37:49;;;;;;;50.70;27.60;;;;;;;0.48;91.34;100200.02;129859;1270;99051;-80
2023/12/03 11:41:00;;;;;;;33.60;19.70;;;;;;;0.49;91.40;100200.27;129996;1266;99219;-80
2023/12/03 11:48:05;;;;;;;41.90;24.90;;;;;;;0.36;91.31;100210.30;127518;1291;636107;-79
2023/12/03 11:51:14;;;;;;;27.60;16.30;;;;;;;0.31;91.08;100213.90;130926;1260;107487;-80
2023/12/03 11:54:39;;;;;;;29.70;16.30;;;;;;;0.22;91.02;100220.38;131372;1251;107891;-79
2023/12/03 11:58:03;;;;;;;203.60;68.10;;;;;;;0.11;91.29;100223.60;131201;1250;107704;-79
2023/12/03 12:01:14;;;;;;;104.40;39.60;;;;;;;0.14;91.53;100226.23;131189;1248;285168;-79
2023/12/03 12:04:33;;;;;;;33.00;16.00;;;;;;;0.15;91.26;100229.51;131928;1248;107554;-79
2023/12/03 12:07:55;;;;;;;46.80;19.40;;;;;;;0.15;91.17;100232.30;131778;1246;107232;-81
2023/12/03 12:11:04;;;;;;;73.60;26.30;;;;;;;0.11;91.03;100237.61;131765;1248;108671;-80
2023/12/03 12:14:23;;;;;;;69.30;24.60;;;;;;;0.15;91.21;100239.13;131829;1247;108692;-81
2023/12/03 12:17:33;;;;;;;43.60;17.60;;;;;;;0.15;90.62;100243.67;131730;1248;107572;-79
2023/12/03 12:20:42;;;;;;;47.90;19.80;;;;;;;0.13;90.44;100248.54;131333;1250;107630;-80
2023/12/03 12:23:50;;;;;;;58.30;20.90;;;;;;;0.14;90.67;100248.64;131718;1251;107482;-80
2023/12/03 12:27:06;;;;;;;584.00;183.10;;;;;;;0.17;90.56;100252.83;131440;1247;105453;-79
2023/12/03 12:30:20;;;;;;;226.40;67.90;;;;;;;0.25;90.93;100258.16;131475;1253;107470;-81
2023/12/03 12:33:31;;;;;;;100.90;39.10;;;;;;;0.30;90.74;100265.59;131552;1252;106467;-78
2023/12/03 12:36:42;;;;;;;64.10;26.40;;;;;;;0.27;90.52;100273.11;132113;1250;107503;-79
2023/12/03 12:39:53;;;;;;;28.00;15.50;;;;;;;0.26;90.47;100280.14;131589;1252;106873;-79
2023/12/03 12:43:21;;;;;;;539.40;219.60;;;;;;;0.24;89.60;100285.69;131504;1250;108591;-80
2023/12/03 12:46:35;;;;;;;34.20;19.00;;;;;;;0.25;89.56;100292.83;131125;1247;108632;-80
2023/12/03 12:50:01;;;;;;;149.00;67.30;;;;;;;0.18;89.37;100293.05;131395;1252;107342;-79
2023/12/03 12:53:11;;;;;;;45.80;22.80;;;;;;;0.21;89.55;100294.45;131344;1253;107585;-80
2023/12/03 12:56:23;;;;;;;41.90;20.40;;;;;;;0.18;89.68;100302.14;131362;1247;107973;-79
2023/12/03 12:59:32;;;;;;;40.20;20.90;;;;;;;0.07;88.30;100301.85;131368;1253;106606;-79
2023/12/03 13:02:49;;;;;;;51.50;22.30;;;;;;;-0.00;88.59;100310.85;131268;1253;107688;-81
2023/12/03 13:05:59;;;;;;;39.60;25.10;;;;;;;-0.09;88.68;100316.19;131280;1252;106077;-79
2023/12/03 13:09:05;;;;;;;244.40;89.00;;;;;;;-0.09;88.97;100318.85;131408;1250;106242;-79
2023/12/03 13:12:16;;;;;;;44.90;19.30;;;;;;;-0.03;89.01;100325.67;131353;1253;107873;-80
2023/12/03 13:15:25;;;;;;;99.60;35.10;;;;;;;-0.06;87.77;100322.50;131459;1253;106956;-80
2023/12/03 13:18:40;;;;;;;114.50;40.40;;;;;;;-0.15;87.12;100324.91;131280;1253;107726;-81
2023/12/03 13:21:56;;;;;;;120.10;44.30;;;;;;;-0.17;87.34;100329.23;131300;1248;107367;-79
2023/12/03 13:25:10;;;;;;;138.70;50.00;;;;;;;-0.26;86.98;100335.45;131341;1248;107533;-79
2023/12/03 13:28:26;;;;;;;180.00;61.90;;;;;;;-0.36;86.34;100343.17;131414;1251;108458;-79
2023/12/03 13:31:44;;;;;;;132.50;55.50;;;;;;;-0.44;87.05;100345.69;131286;1253;106903;-79
2023/12/03 13:34:56;;;;;;;90.50;42.80;;;;;;;-0.45;86.98;100348.70;131379;1252;106610;-79
2023/12/03 13:38:05;;;;;;;51.90;25.50;;;;;;;-0.47;86.82;100351.95;131672;1261;108657;-80
2023/12/03 13:41:18;;;;;;;42.50;19.80;;;;;;;-0.59;85.78;100353.48;131856;1253;107503;-79
2023/12/03 13:44:55;;;;;;;;;;;;;;;-0.64;86.47;100355.48;131513;1250;108656;-80
2023/12/03 13:48:05;;;;;;;45.10;20.50;;;;;;;-0.69;86.53;100354.85;131724;1250;107065;-78
2023/12/03 13:51:17;;;;;;;24.90;13.30;;;;;;;-0.71;86.16;100357.94;131609;1248;107487;-79
2023/12/03 13:54:33;;;;;;;32.20;18.70;;;;;;;-0.79;86.37;100358.65;131507;1248;107619;-80
2023/12/03 13:57:47;;;;;;;32.10;14.40;;;;;;;-0.84;86.07;100366.94;131521;1252;108535;-78
2023/12/03 14:04:23;;;;;;;25.80;14.30;;;;;;;-1.04;86.27;100372.13;131640;1250;108601;-79
2023/12/03 14:07:31;;;;;;;28.60;13.60;;;;;;;-1.11;86.43;100377.55;131647;1248;107444;-83
2023/12/03 14:10:46;;;;;;;30.10;15.90;;;;;;;-1.17;86.49;100383.61;132025;1247;107195;-81
2023/12/03 14:14:05;;;;;;;31.60;17.50;;;;;;;-1.16;86.02;100391.45;131761;1254;107308;-81
2023/12/03 14:17:11;;;;;;;23.20;13.00;;;;;;;-1.18;86.33;100395.34;132072;1251;107502;-81